createdAt,value
2022-08-24T00:00:29.697Z,21.59
2022-08-24T00:03:12.040Z,21.57
2022-08-24T00:05:44.463Z,21.56
2022-08-24T00:08:19.099Z,21.57
2022-08-24T00:10:51.261Z,21.57
2022-08-24T00:13:23.951Z,21.55
2022-08-24T00:16:00.943Z,21.54
2022-08-24T00:18:33.600Z,21.53
2022-08-24T00:21:06.262Z,21.54
2022-08-24T00:23:38.804Z,21.55
2022-08-24T00:26:12.420Z,21.49
2022-08-24T00:28:44.992Z,21.43
2022-08-24T00:31:19.743Z,21.38
2022-08-24T00:33:51.979Z,21.34
2022-08-24T00:36:24.937Z,21.32
2022-08-24T00:38:57.634Z,21.32
2022-08-24T00:41:30.167Z,21.26
2022-08-24T00:44:06.011Z,21.11
2022-08-24T00:46:45.602Z,21.06
2022-08-24T00:49:27.016Z,20.99
2022-08-24T00:52:06.776Z,20.92
2022-08-24T00:54:46.238Z,20.84
2022-08-24T00:57:23.730Z,20.73
2022-08-24T01:00:00.384Z,20.67
2022-08-24T01:02:37.138Z,20.62
2022-08-24T01:05:12.408Z,20.56
2022-08-24T01:07:45.282Z,20.54
2022-08-24T01:10:21.043Z,20.55
2022-08-24T01:13:01.100Z,20.58
2022-08-24T01:15:37.619Z,20.52
2022-08-24T01:18:30.590Z,20.48
2022-08-24T01:21:08.433Z,20.49
2022-08-24T01:23:44.473Z,20.47
2022-08-24T01:26:21.351Z,20.43
2022-08-24T01:28:57.268Z,20.34
2022-08-24T01:31:29.729Z,20.25
2022-08-24T01:34:02.453Z,20.18
2022-08-24T01:36:40.556Z,20.15
2022-08-24T01:39:16.176Z,20.04
2022-08-24T01:41:48.781Z,20.00
2022-08-24T01:44:22.575Z,19.90
2022-08-24T01:46:57.069Z,19.82
2022-08-24T01:49:32.399Z,19.76
2022-08-24T01:52:06.567Z,19.66
2022-08-24T01:54:39.164Z,19.58
2022-08-24T01:57:17.195Z,19.56
2022-08-24T01:59:49.600Z,19.54
2022-08-24T02:02:26.567Z,19.53
2022-08-24T02:04:59.352Z,19.51
2022-08-24T02:07:33.132Z,19.49
2022-08-24T02:10:06.516Z,19.49
2022-08-24T02:12:40.535Z,19.47
2022-08-24T02:15:14.359Z,19.49
2022-08-24T02:17:46.516Z,19.50
2022-08-24T02:20:19.170Z,19.52
2022-08-24T02:22:51.928Z,19.50
2022-08-24T02:25:25.469Z,19.54
2022-08-24T02:27:58.248Z,19.58
2022-08-24T02:30:31.700Z,19.62
2022-08-24T02:33:04.498Z,19.64
2022-08-24T02:35:38.063Z,19.64
2022-08-24T02:38:10.330Z,19.65
2022-08-24T02:40:42.495Z,19.66
2022-08-24T02:43:14.836Z,19.67
2022-08-24T02:45:50.369Z,19.71
2022-08-24T02:48:23.186Z,19.78
2022-08-24T02:50:55.559Z,19.84
2022-08-24T02:53:27.766Z,19.91
2022-08-24T02:55:59.910Z,19.95
2022-08-24T02:58:32.167Z,19.99
2022-08-24T03:01:04.444Z,20.01
2022-08-24T03:03:47.021Z,20.00
2022-08-24T03:06:19.359Z,20.00
2022-08-24T03:08:56.626Z,19.98
2022-08-24T03:11:29.279Z,19.99
2022-08-24T03:14:02.192Z,20.02
2022-08-24T03:16:34.535Z,20.05
2022-08-24T03:19:06.761Z,20.07
2022-08-24T03:21:38.936Z,20.05
2022-08-24T03:24:11.223Z,20.09
2022-08-24T03:26:44.549Z,20.10
2022-08-24T03:29:17.322Z,20.17
2022-08-24T03:31:49.989Z,20.20
2022-08-24T03:34:22.151Z,20.23
2022-08-24T03:36:54.342Z,20.26
2022-08-24T03:39:26.524Z,20.31
2022-08-24T03:41:58.961Z,20.34
2022-08-24T03:44:31.171Z,20.35
2022-08-24T03:47:03.339Z,20.39
2022-08-24T03:49:35.500Z,20.42
2022-08-24T03:52:08.931Z,20.44
2022-08-24T03:54:41.296Z,20.45
2022-08-24T03:57:13.899Z,20.43
2022-08-24T03:59:46.582Z,20.45
2022-08-24T04:02:19.951Z,20.46
2022-08-24T04:04:52.166Z,20.47
2022-08-24T04:07:24.782Z,20.48
2022-08-24T04:09:56.947Z,20.50
2022-08-24T04:12:29.248Z,20.49
2022-08-24T04:15:01.747Z,20.50
2022-08-24T04:17:34.324Z,20.53
2022-08-24T04:20:09.076Z,20.57
2022-08-24T04:22:41.725Z,20.62
2022-08-24T04:25:14.980Z,20.71
2022-08-24T04:27:47.295Z,20.75
2022-08-24T04:30:19.661Z,20.79
2022-08-24T04:32:51.972Z,20.85
2022-08-24T04:35:24.120Z,20.90
2022-08-24T04:37:56.369Z,20.93
2022-08-24T04:40:28.723Z,20.98
2022-08-24T04:43:01.823Z,21.03
2022-08-24T04:45:34.635Z,21.06
2022-08-24T04:48:07.995Z,21.12
2022-08-24T04:50:42.847Z,21.20
2022-08-24T04:53:16.133Z,21.30
2022-08-24T04:55:51.295Z,21.38
2022-08-24T04:58:23.531Z,21.45
2022-08-24T05:00:55.817Z,21.50
2022-08-24T05:03:28.598Z,21.55
2022-08-24T05:06:00.884Z,21.60
2022-08-24T05:08:33.906Z,21.61
2022-08-24T05:11:08.484Z,21.65
2022-08-24T05:13:41.092Z,21.70
2022-08-24T05:16:16.289Z,21.71
2022-08-24T05:18:48.915Z,21.75
2022-08-24T05:21:24.320Z,21.80
2022-08-24T05:23:55.164Z,21.83
2022-08-24T05:26:28.927Z,21.84
2022-08-24T05:29:03.404Z,21.83
2022-08-24T05:31:36.048Z,21.85
2022-08-24T05:34:08.308Z,21.85
2022-08-24T05:36:41.795Z,21.93
2022-08-24T05:39:16.028Z,22.01
2022-08-24T05:41:49.852Z,22.06
2022-08-24T05:44:22.058Z,22.13
2022-08-24T05:46:55.919Z,22.21
2022-08-24T05:49:28.609Z,22.28
2022-08-24T05:52:02.310Z,22.35
2022-08-24T05:54:34.523Z,22.45
2022-08-24T05:57:07.135Z,22.54
2022-08-24T05:59:40.968Z,22.62
2022-08-24T06:02:13.375Z,22.70
2022-08-24T06:04:45.770Z,22.74
2022-08-24T06:07:19.162Z,22.77
2022-08-24T06:09:54.242Z,22.82
2022-08-24T06:12:26.722Z,22.92
2022-08-24T06:14:59.232Z,23.05
2022-08-24T06:17:31.801Z,23.15
2022-08-24T06:20:04.456Z,23.22
2022-08-24T06:22:36.693Z,23.31
2022-08-24T06:25:27.440Z,23.38
2022-08-24T06:27:59.741Z,23.49
2022-08-24T06:30:32.451Z,23.61
2022-08-24T06:33:06.056Z,23.73
2022-08-24T06:35:38.310Z,23.84
2022-08-24T06:38:11.003Z,23.93
2022-08-24T06:40:44.148Z,24.04
2022-08-24T06:43:16.372Z,24.13
2022-08-24T06:45:48.868Z,24.21
2022-08-24T06:48:21.487Z,24.29
2022-08-24T06:50:53.991Z,24.34
2022-08-24T06:53:26.288Z,24.36
2022-08-24T06:56:00.145Z,24.41
2022-08-24T06:58:32.644Z,24.48
2022-08-24T07:01:13.456Z,24.58
2022-08-24T07:03:46.312Z,24.67
2022-08-24T07:06:19.452Z,24.76
2022-08-24T07:08:52.671Z,24.83
2022-08-24T07:11:25.695Z,24.86
2022-08-24T07:13:57.850Z,24.94
2022-08-24T07:16:31.137Z,25.00
2022-08-24T07:19:04.338Z,25.02
2022-08-24T07:21:37.023Z,25.08
2022-08-24T07:24:10.821Z,25.16
2022-08-24T07:26:44.599Z,25.21
2022-08-24T07:29:45.918Z,25.29
2022-08-24T07:32:10.374Z,25.40
2022-08-24T07:34:42.580Z,25.49
2022-08-24T07:37:14.992Z,25.61
2022-08-24T07:39:47.630Z,25.72
2022-08-24T07:42:29.479Z,25.87
2022-08-24T07:45:03.726Z,26.00
2022-08-24T07:47:41.057Z,26.13
2022-08-24T07:50:15.505Z,26.33
2022-08-24T07:52:48.440Z,26.49
2022-08-24T07:55:20.872Z,26.67
2022-08-24T07:57:53.302Z,26.88
2022-08-24T08:00:25.949Z,27.11
2022-08-24T08:02:58.269Z,27.38
2022-08-24T08:05:30.504Z,27.62
2022-08-24T08:08:02.843Z,27.88
2022-08-24T08:10:36.296Z,28.10
2022-08-24T08:13:10.076Z,28.34
2022-08-24T08:15:43.618Z,28.54
2022-08-24T08:18:16.931Z,28.77
2022-08-24T08:20:50.195Z,28.93
2022-08-24T08:23:40.968Z,29.08
2022-08-24T08:26:20.368Z,29.28
2022-08-24T08:28:52.609Z,29.41
2022-08-24T08:31:24.874Z,29.50
2022-08-24T08:33:59.832Z,29.57
2022-08-24T08:36:32.504Z,29.67
2022-08-24T08:39:05.186Z,29.75
2022-08-24T08:42:06.910Z,29.86
2022-08-24T08:45:00.174Z,30.02
2022-08-24T08:47:57.982Z,30.20
2022-08-24T08:50:35.372Z,30.31
2022-08-24T08:53:35.400Z,30.36
2022-08-24T08:56:18.085Z,30.41
2022-08-24T08:59:01.685Z,30.48
2022-08-24T09:01:47.511Z,30.52
2022-08-24T09:04:45.949Z,30.61
2022-08-24T09:07:27.976Z,30.64
2022-08-24T09:10:32.808Z,30.62
2022-08-24T09:13:17.526Z,30.63
2022-08-24T09:16:12.228Z,30.60
2022-08-24T09:18:55.827Z,30.37
2022-08-24T09:21:49.772Z,30.28
2022-08-24T09:24:45.640Z,30.45
2022-08-24T09:27:28.850Z,30.52
2022-08-24T09:30:11.518Z,30.48
2022-08-24T09:33:03.724Z,30.40
2022-08-24T09:36:00.145Z,30.47
2022-08-24T09:38:51.336Z,30.47
2022-08-24T09:41:49.340Z,30.40
2022-08-24T09:44:46.397Z,30.42
2022-08-24T09:47:44.466Z,30.54
2022-08-24T09:51:11.494Z,30.66
2022-08-24T09:54:14.283Z,30.71
2022-08-24T09:57:12.003Z,30.84
2022-08-24T10:00:11.150Z,30.98
2022-08-24T10:03:08.478Z,31.18
2022-08-24T10:06:01.051Z,31.25
2022-08-24T10:08:42.370Z,31.28
2022-08-24T10:11:25.144Z,31.26
2022-08-24T10:14:08.448Z,31.37
2022-08-24T10:16:46.197Z,31.40
2022-08-24T10:19:53.185Z,31.28
2022-08-24T10:22:53.019Z,31.10
2022-08-24T10:25:37.308Z,31.15
2022-08-24T10:28:34.636Z,31.29
2022-08-24T10:31:12.680Z,31.33
2022-08-24T10:34:00.564Z,31.30
2022-08-24T10:36:51.071Z,31.24
2022-08-24T10:39:56.825Z,31.19
2022-08-24T10:43:10.442Z,31.26
2022-08-24T10:46:30.472Z,31.24
2022-08-24T10:49:39.660Z,31.22
2022-08-24T10:52:46.850Z,31.24
2022-08-24T10:55:24.969Z,31.26
2022-08-24T10:58:14.739Z,31.39
2022-08-24T11:00:47.749Z,31.54
2022-08-24T11:03:27.923Z,31.61
2022-08-24T11:06:01.108Z,31.69
2022-08-24T11:08:34.640Z,31.77
2022-08-24T11:11:11.313Z,31.84
2022-08-24T11:13:54.664Z,31.87
2022-08-24T11:16:31.192Z,31.87
2022-08-24T11:19:05.741Z,31.88
2022-08-24T11:21:48.387Z,31.81
2022-08-24T11:24:39.576Z,31.70
2022-08-24T11:27:26.573Z,31.63
2022-08-24T11:30:02.640Z,31.61
2022-08-24T11:32:40.763Z,31.65
2022-08-24T11:35:23.907Z,31.68
2022-08-24T11:37:59.350Z,31.77
2022-08-24T11:40:35.910Z,31.71
2022-08-24T11:43:28.150Z,31.65
2022-08-24T11:46:14.198Z,31.66
2022-08-24T11:48:57.084Z,31.64
2022-08-24T11:51:41.780Z,31.67
2022-08-24T11:54:25.343Z,31.69
2022-08-24T11:57:09.318Z,31.73
2022-08-24T11:59:49.731Z,31.72
2022-08-24T12:02:29.966Z,31.70
2022-08-24T12:05:09.132Z,31.66
2022-08-24T12:07:53.151Z,31.68
2022-08-24T12:10:38.589Z,31.73
2022-08-24T12:13:12.379Z,31.76
2022-08-24T12:15:52.724Z,31.77
2022-08-24T12:18:31.863Z,31.78
2022-08-24T12:21:04.219Z,31.80
2022-08-24T12:23:41.183Z,31.81
2022-08-24T12:26:22.391Z,31.78
2022-08-24T12:28:57.904Z,31.77
2022-08-24T12:31:41.076Z,31.73
2022-08-24T12:34:19.648Z,31.69
2022-08-24T12:37:01.771Z,31.65
2022-08-24T12:39:43.642Z,31.61
2022-08-24T12:42:23.520Z,31.59
2022-08-24T12:45:00.236Z,31.59
2022-08-24T12:47:39.557Z,31.59
2022-08-24T12:50:17.537Z,31.57
2022-08-24T12:53:12.141Z,31.57
2022-08-24T12:56:06.932Z,31.57
2022-08-24T12:59:01.032Z,31.58
2022-08-24T13:01:37.334Z,31.55
2022-08-24T13:04:17.048Z,31.54
2022-08-24T13:07:00.729Z,31.47
2022-08-24T13:09:37.121Z,31.40
2022-08-24T13:12:39.681Z,31.40
2022-08-24T13:15:50.135Z,31.43
2022-08-24T13:18:53.278Z,31.45
2022-08-24T13:21:46.015Z,31.45
2022-08-24T13:24:45.591Z,31.47
2022-08-24T13:28:02.409Z,31.51
2022-08-24T13:30:55.547Z,31.57
2022-08-24T13:33:35.036Z,31.61
2022-08-24T13:36:29.943Z,31.62
2022-08-24T13:39:12.560Z,31.64
2022-08-24T13:41:55.251Z,31.66
2022-08-24T13:44:38.879Z,31.66
2022-08-24T13:47:18.110Z,31.64
2022-08-24T13:50:03.619Z,31.64
2022-08-24T13:52:46.291Z,31.65
2022-08-24T13:55:43.907Z,31.67
2022-08-24T13:58:36.545Z,31.69
2022-08-24T14:01:26.044Z,31.70
2022-08-24T14:04:30.374Z,31.71
2022-08-24T14:07:10.946Z,31.66
2022-08-24T14:09:59.725Z,31.62
2022-08-24T14:13:00.210Z,31.57
2022-08-24T14:15:49.970Z,31.46
2022-08-24T14:18:35.960Z,31.40
2022-08-24T14:21:17.921Z,31.35
2022-08-24T14:23:59.355Z,31.28
2022-08-24T14:27:04.508Z,31.22
2022-08-24T14:29:40.764Z,31.18
2022-08-24T14:32:40.960Z,31.14
2022-08-24T14:35:37.427Z,31.11
2022-08-24T14:38:28.233Z,31.06
2022-08-24T14:41:19.944Z,30.98
2022-08-24T14:44:11.470Z,30.93
2022-08-24T14:46:51.562Z,30.91
2022-08-24T14:49:30.318Z,30.90
2022-08-24T14:52:22.299Z,30.88
2022-08-24T14:55:11.856Z,30.90
2022-08-24T14:58:00.854Z,30.90
2022-08-24T15:00:57.690Z,30.84
2022-08-24T15:03:54.796Z,30.87
2022-08-24T15:06:35.605Z,30.88
2022-08-24T15:09:18.832Z,30.88
2022-08-24T15:11:52.796Z,30.87
2022-08-24T15:14:48.835Z,30.86
2022-08-24T15:17:31.347Z,30.84
2022-08-24T15:20:08.943Z,30.81
2022-08-24T15:22:51.676Z,30.79
2022-08-24T15:25:40.703Z,30.78
2022-08-24T15:28:16.213Z,30.78
2022-08-24T15:30:58.770Z,30.79
2022-08-24T15:33:39.536Z,30.76
2022-08-24T15:36:18.772Z,30.74
2022-08-24T15:38:51.244Z,30.73
2022-08-24T15:41:28.861Z,30.73
2022-08-24T15:44:05.282Z,30.72
2022-08-24T15:46:40.595Z,30.71
2022-08-24T15:49:18.878Z,30.70
2022-08-24T15:51:54.836Z,30.69
2022-08-24T15:54:41.103Z,30.68
2022-08-24T15:57:27.595Z,30.66
2022-08-24T16:00:13.513Z,30.64
2022-08-24T16:02:45.911Z,30.63
2022-08-24T16:05:37.624Z,30.61
2022-08-24T16:08:15.459Z,30.59
2022-08-24T16:10:50.034Z,30.58
2022-08-24T16:13:33.702Z,30.58
2022-08-24T16:16:09.381Z,30.55
2022-08-24T16:18:52.250Z,30.54
2022-08-24T16:21:33.875Z,30.53
2022-08-24T16:24:12.233Z,30.50
2022-08-24T16:27:05.673Z,30.49
2022-08-24T16:29:56.057Z,30.46
2022-08-24T16:32:50.277Z,30.44
2022-08-24T16:35:25.985Z,30.41
2022-08-24T16:37:58.271Z,30.39
2022-08-24T16:40:34.642Z,30.34
2022-08-24T16:43:06.947Z,30.32
2022-08-24T16:45:39.217Z,30.29
2022-08-24T16:48:11.446Z,30.26
2022-08-24T16:50:46.179Z,30.22
2022-08-24T16:53:20.528Z,30.18
2022-08-24T16:55:52.837Z,30.14
2022-08-24T16:58:30.981Z,30.11
2022-08-24T17:01:03.974Z,30.07
2022-08-24T17:03:36.242Z,30.03
2022-08-24T17:06:12.371Z,29.98
2022-08-24T17:08:44.697Z,29.95
2022-08-24T17:11:17.820Z,29.91
2022-08-24T17:13:50.848Z,29.86
2022-08-24T17:16:24.024Z,29.82
2022-08-24T17:18:58.782Z,29.75
2022-08-24T17:21:30.998Z,29.74
2022-08-24T17:24:03.612Z,29.69
2022-08-24T17:26:36.494Z,29.66
2022-08-24T17:29:13.228Z,29.62
2022-08-24T17:31:51.044Z,29.57
2022-08-24T17:34:24.938Z,29.54
2022-08-24T17:36:58.107Z,29.51
2022-08-24T17:39:30.679Z,29.47
2022-08-24T17:42:03.685Z,29.43
2022-08-24T17:44:37.099Z,29.39
2022-08-24T17:47:09.924Z,29.36
2022-08-24T17:49:42.507Z,29.32
2022-08-24T17:52:15.291Z,29.29
2022-08-24T17:54:47.496Z,29.26
2022-08-24T17:57:22.090Z,29.21
2022-08-24T17:59:54.297Z,29.17
2022-08-24T18:02:26.785Z,29.13
2022-08-24T18:04:59.071Z,29.10
2022-08-24T18:07:51.977Z,29.07
2022-08-24T18:10:26.177Z,29.03
2022-08-24T18:12:59.468Z,28.98
2022-08-24T18:15:35.928Z,28.95
2022-08-24T18:18:10.303Z,28.90
2022-08-24T18:20:43.604Z,28.86
2022-08-24T18:23:21.289Z,28.82
2022-08-24T18:25:56.892Z,28.78
2022-08-24T18:28:29.140Z,28.75
2022-08-24T18:31:01.471Z,28.72
2022-08-24T18:33:33.672Z,28.69
2022-08-24T18:36:08.359Z,28.66
2022-08-24T18:38:40.669Z,28.64
2022-08-24T18:41:13.793Z,28.62
2022-08-24T18:43:46.264Z,28.60
2022-08-24T18:46:19.482Z,28.58
2022-08-24T18:48:51.751Z,28.56
2022-08-24T18:51:24.510Z,28.54
2022-08-24T18:54:10.403Z,28.51
2022-08-24T18:56:42.674Z,28.49
2022-08-24T18:59:16.572Z,28.47
2022-08-24T19:02:23.842Z,28.42
2022-08-24T19:04:56.554Z,28.42
2022-08-24T19:07:30.056Z,28.40
2022-08-24T19:10:03.169Z,28.38
2022-08-24T19:12:38.592Z,28.36
2022-08-24T19:15:31.989Z,28.32
2022-08-24T19:18:05.700Z,28.29
2022-08-24T19:20:39.178Z,28.27
2022-08-24T19:23:14.879Z,28.25
2022-08-24T19:25:47.716Z,28.22
2022-08-24T19:28:21.625Z,28.20
2022-08-24T19:30:57.691Z,28.17
2022-08-24T19:33:33.307Z,28.14
2022-08-24T19:36:06.339Z,28.08
2022-08-24T19:38:38.507Z,28.08
2022-08-24T19:41:12.926Z,28.05
2022-08-24T19:44:05.051Z,28.03
2022-08-24T19:46:37.326Z,28.00
2022-08-24T19:49:09.927Z,27.98
2022-08-24T19:51:42.192Z,27.96
2022-08-24T19:54:14.420Z,27.94
2022-08-24T19:56:46.847Z,27.92
2022-08-24T19:59:27.156Z,27.88
2022-08-24T20:01:59.391Z,27.85
2022-08-24T20:04:31.675Z,27.82
2022-08-24T20:07:03.904Z,27.80
2022-08-24T20:09:36.145Z,27.77
2022-08-24T20:12:09.339Z,27.74
2022-08-24T20:14:41.546Z,27.72
2022-08-24T20:17:13.853Z,27.68
2022-08-24T20:19:46.408Z,27.64
2022-08-24T20:22:18.926Z,27.61
2022-08-24T20:24:53.443Z,27.59
2022-08-24T20:27:28.958Z,27.56
2022-08-24T20:30:02.816Z,27.52
2022-08-24T20:32:35.122Z,27.49
2022-08-24T20:35:08.502Z,27.45
2022-08-24T20:37:43.891Z,27.41
2022-08-24T20:40:19.664Z,27.38
2022-08-24T20:42:51.887Z,27.34
2022-08-24T20:45:23.980Z,27.31
2022-08-24T20:47:56.878Z,27.28
2022-08-24T20:50:31.760Z,27.26
2022-08-24T20:53:04.043Z,27.24
2022-08-24T20:55:36.456Z,27.22
2022-08-24T20:58:08.995Z,27.19
2022-08-24T21:00:44.515Z,27.15
2022-08-24T21:03:18.852Z,27.12
2022-08-24T21:05:52.645Z,27.10
2022-08-24T21:08:25.987Z,27.07
2022-08-24T21:10:58.877Z,27.04
2022-08-24T21:13:31.275Z,27.01
2022-08-24T21:16:03.647Z,26.98
2022-08-24T21:18:37.310Z,26.95
2022-08-24T21:21:10.217Z,26.90
2022-08-24T21:23:42.613Z,26.85
2022-08-24T21:26:16.574Z,26.81
2022-08-24T21:28:49.658Z,26.79
2022-08-24T21:31:22.729Z,26.77
2022-08-24T21:34:12.582Z,26.75
2022-08-24T21:36:45.579Z,26.73
2022-08-24T21:39:18.834Z,26.71
2022-08-24T21:41:52.251Z,26.69
2022-08-24T21:44:24.579Z,26.68
2022-08-24T21:46:58.118Z,26.65
2022-08-24T21:49:30.643Z,26.62
2022-08-24T21:52:03.246Z,26.60
2022-08-24T21:54:36.246Z,26.58
2022-08-24T21:57:09.345Z,26.55
2022-08-24T21:59:42.203Z,26.51
2022-08-24T22:02:16.853Z,26.47
2022-08-24T22:04:56.789Z,26.44
2022-08-24T22:07:29.600Z,26.42
2022-08-24T22:10:02.176Z,26.39
2022-08-24T22:12:35.021Z,26.38
2022-08-24T22:15:09.760Z,26.37
2022-08-24T22:17:42.055Z,26.34
2022-08-24T22:20:23.140Z,26.31
2022-08-24T22:22:56.800Z,26.29
2022-08-24T22:25:30.208Z,26.23
2022-08-24T22:28:02.363Z,26.16
2022-08-24T22:30:35.491Z,26.13
2022-08-24T22:33:09.177Z,26.09
2022-08-24T22:35:45.167Z,26.01
2022-08-24T22:38:17.757Z,25.97
2022-08-24T22:40:56.495Z,25.87
2022-08-24T22:43:51.227Z,25.76
2022-08-24T22:46:24.022Z,25.70
2022-08-24T22:48:56.376Z,25.65
2022-08-24T22:51:29.228Z,25.61
2022-08-24T22:54:02.015Z,25.55
2022-08-24T22:56:36.718Z,25.52
2022-08-24T22:59:11.191Z,25.50
2022-08-24T23:01:45.542Z,25.47
2022-08-24T23:04:20.369Z,25.45
2022-08-24T23:06:54.144Z,25.43
2022-08-24T23:09:26.279Z,25.40
2022-08-24T23:11:59.787Z,25.33
2022-08-24T23:14:32.016Z,25.28
2022-08-24T23:17:05.430Z,25.24
2022-08-24T23:19:55.027Z,25.19
2022-08-24T23:22:28.556Z,25.12
2022-08-24T23:25:01.521Z,25.07
2022-08-24T23:27:37.979Z,25.04
2022-08-24T23:30:15.881Z,25.02
2022-08-24T23:32:49.107Z,24.99
2022-08-24T23:35:21.432Z,24.95
2022-08-24T23:37:53.707Z,24.90
2022-08-24T23:40:25.977Z,24.86
2022-08-24T23:42:58.327Z,24.82
2022-08-24T23:45:31.887Z,24.80
2022-08-24T23:48:04.496Z,24.75
2022-08-24T23:50:37.078Z,24.71
2022-08-24T23:53:09.298Z,24.65
2022-08-24T23:55:41.603Z,24.58
2022-08-24T23:58:14.239Z,24.56
